sensor_id;sensor_type;location;lat;lon;timestamp;P1;durP1;ratioP1;P2;durP2;ratioP2
61188;SDS011;47054;39.716;2.904;2023-06-04T13:31:39;16.70;;;5.65;;
61188;SDS011;47054;39.716;2.904;2023-06-04T13:34:24;11.38;;;5.25;;
61188;SDS011;47054;39.716;2.904;2023-06-04T13:37:08;16.25;;;5.20;;
61188;SDS011;47054;39.716;2.904;2023-06-04T13:47:41;9.27;;;3.83;;
61188;SDS011;47054;39.716;2.904;2023-06-04T13:50:28;6.78;;;3.35;;
61188;SDS011;47054;39.716;2.904;2023-06-04T13:53:13;8.45;;;3.70;;
61188;SDS011;47054;39.716;2.904;2023-06-04T13:55:59;17.38;;;3.60;;
61188;SDS011;47054;39.716;2.904;2023-06-04T13:58:44;12.57;;;3.40;;
61188;SDS011;47054;39.716;2.904;2023-06-04T14:01:29;8.93;;;3.90;;
61188;SDS011;47054;39.716;2.904;2023-06-04T14:04:15;13.70;;;4.18;;
61188;SDS011;47054;39.716;2.904;2023-06-04T14:07:00;20.88;;;4.40;;
61188;SDS011;47054;39.716;2.904;2023-06-04T14:09:46;16.85;;;5.82;;
61188;SDS011;47054;39.716;2.904;2023-06-04T14:12:31;18.05;;;7.35;;
61188;SDS011;47054;39.716;2.904;2023-06-04T14:15:18;11.80;;;5.72;;
61188;SDS011;47054;39.716;2.904;2023-06-04T14:18:03;21.70;;;7.03;;
61188;SDS011;47054;39.716;2.904;2023-06-04T14:20:49;14.93;;;5.35;;
61188;SDS011;47054;39.716;2.904;2023-06-04T14:23:35;25.65;;;6.30;;
61188;SDS011;47054;39.716;2.904;2023-06-04T14:29:23;19.67;;;6.05;;
61188;SDS011;47054;39.716;2.904;2023-06-04T14:32:08;19.25;;;6.07;;
61188;SDS011;47054;39.716;2.904;2023-06-04T14:34:53;28.73;;;6.75;;
61188;SDS011;47054;39.716;2.904;2023-06-04T14:37:37;47.08;;;7.07;;
61188;SDS011;47054;39.716;2.904;2023-06-04T14:40:22;0.90;;;0.45;;
61188;SDS011;47054;39.716;2.904;2023-06-04T14:43:06;1.10;;;0.57;;
61188;SDS011;47054;39.716;2.904;2023-06-04T14:45:51;0.40;;;0.40;;
61188;SDS011;47054;39.716;2.904;2023-06-04T14:48:36;1.05;;;0.73;;
61188;SDS011;47054;39.716;2.904;2023-06-04T14:51:21;1.70;;;0.70;;
61188;SDS011;47054;39.716;2.904;2023-06-04T14:54:08;0.00;;;0.00;;
61188;SDS011;47054;39.716;2.904;2023-06-04T14:56:53;0.25;;;0.25;;
61188;SDS011;47054;39.716;2.904;2023-06-04T14:59:37;0.08;;;0.08;;
61188;SDS011;47054;39.716;2.904;2023-06-04T15:02:23;0.60;;;0.57;;
61188;SDS011;47054;39.716;2.904;2023-06-04T15:05:07;0.35;;;0.28;;
61188;SDS011;47054;39.716;2.904;2023-06-04T15:07:52;0.13;;;0.13;;
61188;SDS011;47054;39.716;2.904;2023-06-04T15:10:36;0.10;;;0.10;;
61188;SDS011;47054;39.716;2.904;2023-06-04T15:13:22;0.17;;;0.17;;
61188;SDS011;47054;39.716;2.904;2023-06-04T15:16:06;0.10;;;0.10;;
61188;SDS011;47054;39.716;2.904;2023-06-04T15:19:12;0.32;;;0.32;;
61188;SDS011;47054;39.716;2.904;2023-06-04T15:21:56;0.32;;;0.32;;
61188;SDS011;47054;39.716;2.904;2023-06-04T15:24:41;1.15;;;0.85;;
61188;SDS011;47054;39.716;2.904;2023-06-04T15:27:26;0.28;;;0.20;;
61188;SDS011;47054;39.716;2.904;2023-06-04T15:30:11;0.98;;;0.80;;
61188;SDS011;47054;39.716;2.904;2023-06-04T15:32:56;0.50;;;0.50;;
61188;SDS011;47054;39.716;2.904;2023-06-04T15:35:45;1.13;;;0.57;;
61188;SDS011;47054;39.716;2.904;2023-06-04T15:38:30;0.10;;;0.10;;
61188;SDS011;47054;39.716;2.904;2023-06-04T15:41:17;1.85;;;1.08;;
61188;SDS011;47054;39.716;2.904;2023-06-04T15:44:02;0.65;;;0.47;;
61188;SDS011;47054;39.716;2.904;2023-06-04T15:46:47;0.43;;;0.20;;
61188;SDS011;47054;39.716;2.904;2023-06-04T15:49:31;0.43;;;0.43;;
61188;SDS011;47054;39.716;2.904;2023-06-04T15:52:16;0.60;;;0.50;;
61188;SDS011;47054;39.716;2.904;2023-06-04T15:55:00;0.38;;;0.30;;
61188;SDS011;47054;39.716;2.904;2023-06-04T15:57:45;2.00;;;1.73;;
61188;SDS011;47054;39.716;2.904;2023-06-04T16:00:30;1.52;;;0.98;;
61188;SDS011;47054;39.716;2.904;2023-06-04T16:03:15;0.28;;;0.20;;
61188;SDS011;47054;39.716;2.904;2023-06-04T16:06:01;0.45;;;0.40;;
61188;SDS011;47054;39.716;2.904;2023-06-04T16:08:46;0.55;;;0.47;;
61188;SDS011;47054;39.716;2.904;2023-06-04T16:11:30;1.38;;;1.15;;
61188;SDS011;47054;39.716;2.904;2023-06-04T16:14:15;11.15;;;2.95;;
61188;SDS011;47054;39.716;2.904;2023-06-04T16:17:00;0.52;;;0.30;;
61188;SDS011;47054;39.716;2.904;2023-06-04T16:19:44;0.10;;;0.10;;
61188;SDS011;47054;39.716;2.904;2023-06-04T16:22:29;1.13;;;0.88;;
61188;SDS011;47054;39.716;2.904;2023-06-04T16:25:13;1.27;;;0.70;;
61188;SDS011;47054;39.716;2.904;2023-06-04T16:28:01;1.08;;;0.85;;
61188;SDS011;47054;39.716;2.904;2023-06-04T16:30:46;0.47;;;0.43;;
61188;SDS011;47054;39.716;2.904;2023-06-04T16:33:31;0.52;;;0.45;;
61188;SDS011;47054;39.716;2.904;2023-06-04T16:36:15;0.47;;;0.43;;
61188;SDS011;47054;39.716;2.904;2023-06-04T16:39:00;0.45;;;0.40;;
61188;SDS011;47054;39.716;2.904;2023-06-04T16:41:45;0.32;;;0.30;;
61188;SDS011;47054;39.716;2.904;2023-06-04T16:44:30;0.32;;;0.25;;
61188;SDS011;47054;39.716;2.904;2023-06-04T16:47:14;0.45;;;0.45;;
61188;SDS011;47054;39.716;2.904;2023-06-04T16:49:59;1.90;;;0.40;;
61188;SDS011;47054;39.716;2.904;2023-06-04T16:52:43;0.32;;;0.32;;
61188;SDS011;47054;39.716;2.904;2023-06-04T16:55:28;0.82;;;0.75;;
61188;SDS011;47054;39.716;2.904;2023-06-04T16:58:28;1.10;;;0.50;;
61188;SDS011;47054;39.716;2.904;2023-06-04T17:01:13;8.57;;;1.52;;
61188;SDS011;47054;39.716;2.904;2023-06-04T17:03:58;0.90;;;0.70;;
61188;SDS011;47054;39.716;2.904;2023-06-04T17:06:44;0.90;;;0.63;;
61188;SDS011;47054;39.716;2.904;2023-06-04T17:09:28;0.65;;;0.52;;
61188;SDS011;47054;39.716;2.904;2023-06-04T17:12:13;1.30;;;0.95;;
61188;SDS011;47054;39.716;2.904;2023-06-04T17:14:57;0.77;;;0.73;;
61188;SDS011;47054;39.716;2.904;2023-06-04T17:17:42;0.73;;;0.60;;
61188;SDS011;47054;39.716;2.904;2023-06-04T17:20:27;0.80;;;0.52;;
61188;SDS011;47054;39.716;2.904;2023-06-04T17:23:22;0.75;;;0.75;;
61188;SDS011;47054;39.716;2.904;2023-06-04T17:26:08;0.95;;;0.68;;
61188;SDS011;47054;39.716;2.904;2023-06-04T17:28:52;0.40;;;0.38;;
61188;SDS011;47054;39.716;2.904;2023-06-04T17:31:37;0.22;;;0.22;;
61188;SDS011;47054;39.716;2.904;2023-06-04T17:34:22;0.73;;;0.73;;
61188;SDS011;47054;39.716;2.904;2023-06-04T17:37:06;0.17;;;0.17;;
61188;SDS011;47054;39.716;2.904;2023-06-04T17:39:51;0.43;;;0.40;;
61188;SDS011;47054;39.716;2.904;2023-06-04T17:42:37;0.28;;;0.28;;
61188;SDS011;47054;39.716;2.904;2023-06-04T17:45:22;1.58;;;0.82;;
61188;SDS011;47054;39.716;2.904;2023-06-04T17:48:07;0.65;;;0.60;;
61188;SDS011;47054;39.716;2.904;2023-06-04T17:50:52;0.43;;;0.43;;
61188;SDS011;47054;39.716;2.904;2023-06-04T17:53:36;0.80;;;0.45;;
61188;SDS011;47054;39.716;2.904;2023-06-04T17:56:20;0.85;;;0.55;;
61188;SDS011;47054;39.716;2.904;2023-06-04T17:59:05;1.25;;;0.55;;
61188;SDS011;47054;39.716;2.904;2023-06-04T18:01:50;0.47;;;0.47;;
61188;SDS011;47054;39.716;2.904;2023-06-04T18:04:35;0.20;;;0.20;;
61188;SDS011;47054;39.716;2.904;2023-06-04T18:07:23;0.30;;;0.30;;
61188;SDS011;47054;39.716;2.904;2023-06-04T18:10:08;1.45;;;0.60;;
61188;SDS011;47054;39.716;2.904;2023-06-04T18:12:54;0.10;;;0.10;;
61188;SDS011;47054;39.716;2.904;2023-06-04T18:15:40;1.45;;;0.80;;
61188;SDS011;47054;39.716;2.904;2023-06-04T18:18:25;0.25;;;0.25;;
61188;SDS011;47054;39.716;2.904;2023-06-04T18:21:11;0.20;;;0.20;;
61188;SDS011;47054;39.716;2.904;2023-06-04T18:23:56;0.28;;;0.28;;
61188;SDS011;47054;39.716;2.904;2023-06-04T18:26:40;0.35;;;0.30;;
61188;SDS011;47054;39.716;2.904;2023-06-04T18:29:27;0.98;;;0.40;;
61188;SDS011;47054;39.716;2.904;2023-06-04T18:32:13;3.10;;;1.20;;
61188;SDS011;47054;39.716;2.904;2023-06-04T18:34:57;0.85;;;0.63;;
61188;SDS011;47054;39.716;2.904;2023-06-04T18:37:42;1.08;;;0.57;;
61188;SDS011;47054;39.716;2.904;2023-06-04T18:40:27;4.43;;;0.50;;
61188;SDS011;47054;39.716;2.904;2023-06-04T18:43:12;1.08;;;0.40;;
61188;SDS011;47054;39.716;2.904;2023-06-04T18:45:56;0.20;;;0.20;;
61188;SDS011;47054;39.716;2.904;2023-06-04T18:48:40;0.32;;;0.32;;
61188;SDS011;47054;39.716;2.904;2023-06-04T18:51:25;0.38;;;0.15;;
61188;SDS011;47054;39.716;2.904;2023-06-04T18:54:10;0.15;;;0.15;;
61188;SDS011;47054;39.716;2.904;2023-06-04T18:56:54;0.93;;;0.90;;
61188;SDS011;47054;39.716;2.904;2023-06-04T18:59:39;0.20;;;0.20;;
61188;SDS011;47054;39.716;2.904;2023-06-04T19:02:23;0.20;;;0.20;;
61188;SDS011;47054;39.716;2.904;2023-06-04T19:05:08;1.85;;;1.48;;
61188;SDS011;47054;39.716;2.904;2023-06-04T19:07:54;0.43;;;0.30;;
61188;SDS011;47054;39.716;2.904;2023-06-04T19:10:39;0.10;;;0.10;;
61188;SDS011;47054;39.716;2.904;2023-06-04T19:13:24;0.40;;;0.20;;
61188;SDS011;47054;39.716;2.904;2023-06-04T19:16:10;0.95;;;0.65;;
61188;SDS011;47054;39.716;2.904;2023-06-04T19:18:56;1.08;;;0.38;;
61188;SDS011;47054;39.716;2.904;2023-06-04T19:21:40;0.15;;;0.15;;
61188;SDS011;47054;39.716;2.904;2023-06-04T19:24:25;0.50;;;0.40;;
61188;SDS011;47054;39.716;2.904;2023-06-04T19:27:09;0.00;;;0.00;;
61188;SDS011;47054;39.716;2.904;2023-06-04T19:29:54;0.28;;;0.28;;
61188;SDS011;47054;39.716;2.904;2023-06-04T19:32:38;0.85;;;0.55;;
61188;SDS011;47054;39.716;2.904;2023-06-04T19:35:23;1.02;;;0.68;;
61188;SDS011;47054;39.716;2.904;2023-06-04T19:38:08;0.50;;;0.50;;
61188;SDS011;47054;39.716;2.904;2023-06-04T19:40:52;1.35;;;0.10;;
61188;SDS011;47054;39.716;2.904;2023-06-04T19:43:37;0.40;;;0.35;;
61188;SDS011;47054;39.716;2.904;2023-06-04T19:46:23;0.57;;;0.55;;
61188;SDS011;47054;39.716;2.904;2023-06-04T19:49:07;0.98;;;0.30;;
61188;SDS011;47054;39.716;2.904;2023-06-04T19:51:52;0.60;;;0.28;;
61188;SDS011;47054;39.716;2.904;2023-06-04T19:54:37;0.15;;;0.10;;
61188;SDS011;47054;39.716;2.904;2023-06-04T19:57:21;1.45;;;0.60;;
61188;SDS011;47054;39.716;2.904;2023-06-04T20:00:06;0.22;;;0.22;;
61188;SDS011;47054;39.716;2.904;2023-06-04T20:02:59;0.20;;;0.20;;
61188;SDS011;47054;39.716;2.904;2023-06-04T20:05:45;0.30;;;0.30;;
61188;SDS011;47054;39.716;2.904;2023-06-04T20:08:29;0.57;;;0.40;;
61188;SDS011;47054;39.716;2.904;2023-06-04T20:11:15;0.20;;;0.20;;
61188;SDS011;47054;39.716;2.904;2023-06-04T20:14:00;0.52;;;0.38;;
61188;SDS011;47054;39.716;2.904;2023-06-04T20:16:45;1.63;;;0.50;;
61188;SDS011;47054;39.716;2.904;2023-06-04T20:19:30;0.85;;;0.47;;
61188;SDS011;47054;39.716;2.904;2023-06-04T20:22:14;0.35;;;0.35;;
61188;SDS011;47054;39.716;2.904;2023-06-04T20:24:58;0.10;;;0.10;;
61188;SDS011;47054;39.716;2.904;2023-06-04T20:27:49;0.50;;;0.20;;
61188;SDS011;47054;39.716;2.904;2023-06-04T20:30:34;0.70;;;0.52;;
61188;SDS011;47054;39.716;2.904;2023-06-04T20:33:19;2.33;;;1.95;;
61188;SDS011;47054;39.716;2.904;2023-06-04T20:36:05;0.22;;;0.22;;
61188;SDS011;47054;39.716;2.904;2023-06-04T20:38:52;0.82;;;0.82;;
61188;SDS011;47054;39.716;2.904;2023-06-04T20:41:38;2.13;;;1.63;;
61188;SDS011;47054;39.716;2.904;2023-06-04T20:44:24;1.48;;;0.90;;
61188;SDS011;47054;39.716;2.904;2023-06-04T20:47:09;0.20;;;0.20;;
61188;SDS011;47054;39.716;2.904;2023-06-04T20:49:53;0.52;;;0.40;;
61188;SDS011;47054;39.716;2.904;2023-06-04T20:52:38;0.98;;;0.65;;
61188;SDS011;47054;39.716;2.904;2023-06-04T20:55:25;0.10;;;0.10;;
61188;SDS011;47054;39.716;2.904;2023-06-04T20:58:10;0.13;;;0.13;;
61188;SDS011;47054;39.716;2.904;2023-06-04T21:00:54;1.55;;;1.10;;
61188;SDS011;47054;39.716;2.904;2023-06-04T21:03:39;1.15;;;1.02;;
61188;SDS011;47054;39.716;2.904;2023-06-04T21:06:24;1.77;;;1.65;;
61188;SDS011;47054;39.716;2.904;2023-06-04T21:09:08;0.52;;;0.52;;
61188;SDS011;47054;39.716;2.904;2023-06-04T21:11:53;0.45;;;0.38;;
61188;SDS011;47054;39.716;2.904;2023-06-04T21:14:38;0.45;;;0.38;;
61188;SDS011;47054;39.716;2.904;2023-06-04T21:17:22;0.22;;;0.22;;
61188;SDS011;47054;39.716;2.904;2023-06-04T21:20:07;1.60;;;0.88;;
61188;SDS011;47054;39.716;2.904;2023-06-04T21:22:52;0.00;;;0.00;;
61188;SDS011;47054;39.716;2.904;2023-06-04T21:25:37;0.60;;;0.60;;
61188;SDS011;47054;39.716;2.904;2023-06-04T21:28:21;1.08;;;0.75;;
61188;SDS011;47054;39.716;2.904;2023-06-04T21:31:06;0.52;;;0.45;;
61188;SDS011;47054;39.716;2.904;2023-06-04T21:33:50;1.27;;;1.02;;
61188;SDS011;47054;39.716;2.904;2023-06-04T21:36:35;0.25;;;0.17;;
61188;SDS011;47054;39.716;2.904;2023-06-04T21:39:20;0.63;;;0.30;;
61188;SDS011;47054;39.716;2.904;2023-06-04T21:42:05;2.30;;;0.52;;
61188;SDS011;47054;39.716;2.904;2023-06-04T21:44:50;0.35;;;0.30;;
61188;SDS011;47054;39.716;2.904;2023-06-04T21:47:35;0.22;;;0.22;;
61188;SDS011;47054;39.716;2.904;2023-06-04T21:50:19;0.90;;;0.85;;
61188;SDS011;47054;39.716;2.904;2023-06-04T21:53:03;0.57;;;0.43;;
61188;SDS011;47054;39.716;2.904;2023-06-04T21:55:48;0.20;;;0.20;;
61188;SDS011;47054;39.716;2.904;2023-06-04T21:58:33;0.80;;;0.55;;
61188;SDS011;47054;39.716;2.904;2023-06-04T22:01:17;0.20;;;0.20;;
61188;SDS011;47054;39.716;2.904;2023-06-04T22:04:02;0.10;;;0.10;;
61188;SDS011;47054;39.716;2.904;2023-06-04T22:06:47;0.20;;;0.20;;
61188;SDS011;47054;39.716;2.904;2023-06-04T22:09:32;0.10;;;0.10;;
61188;SDS011;47054;39.716;2.904;2023-06-04T22:12:17;0.10;;;0.10;;
61188;SDS011;47054;39.716;2.904;2023-06-04T22:15:01;0.20;;;0.20;;
61188;SDS011;47054;39.716;2.904;2023-06-04T22:17:46;0.20;;;0.20;;
61188;SDS011;47054;39.716;2.904;2023-06-04T22:20:31;0.15;;;0.15;;
61188;SDS011;47054;39.716;2.904;2023-06-04T22:23:15;0.40;;;0.38;;
61188;SDS011;47054;39.716;2.904;2023-06-04T22:26:00;0.63;;;0.55;;
61188;SDS011;47054;39.716;2.904;2023-06-04T22:38:15;2.08;;;1.20;;
61188;SDS011;47054;39.716;2.904;2023-06-04T22:41:00;0.00;;;0.00;;
61188;SDS011;47054;39.716;2.904;2023-06-04T22:43:45;0.10;;;0.10;;
61188;SDS011;47054;39.716;2.904;2023-06-04T22:46:29;0.30;;;0.30;;
61188;SDS011;47054;39.716;2.904;2023-06-04T22:49:14;0.17;;;0.17;;
61188;SDS011;47054;39.716;2.904;2023-06-04T22:52:00;0.85;;;0.45;;
61188;SDS011;47054;39.716;2.904;2023-06-04T22:54:44;0.10;;;0.10;;
61188;SDS011;47054;39.716;2.904;2023-06-04T22:57:29;2.05;;;0.40;;
61188;SDS011;47054;39.716;2.904;2023-06-04T23:00:14;0.28;;;0.17;;
61188;SDS011;47054;39.716;2.904;2023-06-04T23:02:59;0.17;;;0.17;;
61188;SDS011;47054;39.716;2.904;2023-06-04T23:05:44;0.10;;;0.10;;
61188;SDS011;47054;39.716;2.904;2023-06-04T23:08:29;0.43;;;0.32;;
61188;SDS011;47054;39.716;2.904;2023-06-04T23:11:13;0.20;;;0.20;;
61188;SDS011;47054;39.716;2.904;2023-06-04T23:13:58;0.22;;;0.22;;
61188;SDS011;47054;39.716;2.904;2023-06-04T23:16:43;0.68;;;0.50;;
61188;SDS011;47054;39.716;2.904;2023-06-04T23:19:28;0.10;;;0.10;;
61188;SDS011;47054;39.716;2.904;2023-06-04T23:22:12;0.30;;;0.30;;
61188;SDS011;47054;39.716;2.904;2023-06-04T23:24:57;0.28;;;0.28;;
61188;SDS011;47054;39.716;2.904;2023-06-04T23:27:41;0.65;;;0.65;;
61188;SDS011;47054;39.716;2.904;2023-06-04T23:30:26;0.52;;;0.25;;
61188;SDS011;47054;39.716;2.904;2023-06-04T23:33:10;0.10;;;0.10;;
61188;SDS011;47054;39.716;2.904;2023-06-04T23:35:54;0.52;;;0.32;;
61188;SDS011;47054;39.716;2.904;2023-06-04T23:38:39;0.15;;;0.15;;
61188;SDS011;47054;39.716;2.904;2023-06-04T23:41:24;0.00;;;0.00;;
61188;SDS011;47054;39.716;2.904;2023-06-04T23:44:10;0.20;;;0.20;;
61188;SDS011;47054;39.716;2.904;2023-06-04T23:46:54;0.47;;;0.38;;
61188;SDS011;47054;39.716;2.904;2023-06-04T23:49:39;0.20;;;0.20;;
61188;SDS011;47054;39.716;2.904;2023-06-04T23:52:23;0.10;;;0.10;;
61188;SDS011;47054;39.716;2.904;2023-06-04T23:55:08;0.00;;;0.00;;
61188;SDS011;47054;39.716;2.904;2023-06-04T23:57:53;0.03;;;0.03;;
